KUOX

Details ICAO KUOX
Name UNIVERSITY OXFORD
Region United States
Timezone America/Chicago (UTC-6.0)
Plans Departing 1
Arriving 7
Stats Elevation 452 ft / 138 m (AMSL)
Location 34.384332° -89.536794°
Runways 1
Magnetic Variation 1.605° W
Sunrise 2017-12-16 12:59:22 UTC / 2017-12-16 06:59:22 Local
Sunset 2017-12-16 22:51:12 UTC / 2017-12-16 16:51:12 Local
Advertisement - Login to hide

Runways

ID Width Length Bearing (true) Bearing (mag) Surface Threshold Offset Overrun Length
09 100 ft / 30 m 5,588 ft / 1,703 m 90.84° 92.45° Asphalt 0 ft / 0 m 151 ft / 46 m
27 100 ft / 30 m 5,588 ft / 1,703 m 270.85° 272.46° Asphalt 0 ft / 0 m 0 ft / 0 m

Approach Navaids

Runway Type Ident Frequency Range Bearing (true) Bearing (mag) Slope Elevation
09 Localiser IUVD 111.70 MHz 18 nm / 33 km 90.84° 92.45° - 452 ft / 138 m (AMSL)

Map

Weather


0- 5 10 15 20 25 30 35+ Temperature / ° C

Clouds and Precipitation
Forecast for 2017-12-17 00:00 UTC. Updated an hour ago

Ground ~20,000 ft ~40,000 ft Winds

METAR

KUOX 162235Z AUTO 18004KT 10SM CLR 09/M01 A3019 RMK AO2

TAF

Not found

Frequencies

Recorded 132.72 MHz AWOS 3
Unicom 123.00 MHz CTAF/UNICOM
Warning: Do not use this data for real-world aviation or navigation. No guarantee of current accuracy is given.